createdAt,value
2018-07-31T00:01:18.941Z,11.23
2018-07-31T00:03:48.008Z,11.00
2018-07-31T00:06:19.170Z,10.70
2018-07-31T00:08:47.757Z,10.90
2018-07-31T00:11:15.699Z,11.07
2018-07-31T00:13:43.639Z,11.43
2018-07-31T00:16:11.419Z,11.53
2018-07-31T00:18:39.451Z,11.20
2018-07-31T00:21:07.508Z,11.17
2018-07-31T00:23:35.496Z,10.93
2018-07-31T00:26:03.658Z,10.60
2018-07-31T00:28:32.275Z,10.57
2018-07-31T00:31:00.120Z,10.10
2018-07-31T00:33:27.988Z,11.37
2018-07-31T00:35:55.872Z,11.07
2018-07-31T00:38:24.686Z,11.17
2018-07-31T00:40:53.220Z,11.07
2018-07-31T00:43:22.049Z,11.67
2018-07-31T00:45:49.809Z,10.77
2018-07-31T00:48:17.865Z,11.00
2018-07-31T00:50:45.897Z,12.50
2018-07-31T00:53:13.747Z,12.53
2018-07-31T00:55:41.712Z,12.13
2018-07-31T00:58:09.633Z,11.60
2018-07-31T01:00:38.426Z,11.67
2018-07-31T01:03:06.414Z,10.43
2018-07-31T01:05:34.399Z,10.87
2018-07-31T01:08:02.293Z,11.30
2018-07-31T01:10:30.227Z,11.73
2018-07-31T01:12:58.715Z,11.13
2018-07-31T01:15:26.719Z,10.33
2018-07-31T01:17:54.636Z,10.73
2018-07-31T01:20:22.518Z,11.20
2018-07-31T01:22:50.505Z,10.97
2018-07-31T01:25:18.940Z,11.67
2018-07-31T01:27:47.368Z,11.47
2018-07-31T01:30:15.341Z,10.67
2018-07-31T01:32:43.986Z,11.33
2018-07-31T01:35:11.855Z,12.23
2018-07-31T01:37:40.252Z,10.90
2018-07-31T01:40:08.094Z,11.47
2018-07-31T01:42:36.999Z,11.27
2018-07-31T01:45:05.708Z,11.23
2018-07-31T01:47:33.588Z,11.40
2018-07-31T01:50:01.406Z,11.47
2018-07-31T01:52:29.371Z,13.27
2018-07-31T01:54:57.403Z,12.03
2018-07-31T01:57:25.232Z,11.60
2018-07-31T01:59:53.120Z,10.23
2018-07-31T02:02:21.205Z,10.83
2018-07-31T02:04:49.092Z,10.80
2018-07-31T02:07:17.035Z,11.93
2018-07-31T02:09:45.694Z,12.17
2018-07-31T02:12:13.601Z,11.83
2018-07-31T02:14:41.421Z,11.63
2018-07-31T02:17:09.295Z,12.23
2018-07-31T02:19:37.204Z,11.47
2018-07-31T02:22:05.103Z,12.07
2018-07-31T02:24:33.210Z,10.93
2018-07-31T02:27:01.119Z,11.83
2018-07-31T02:29:34.842Z,12.10
2018-07-31T02:32:02.926Z,12.37
2018-07-31T02:34:30.781Z,12.80
2018-07-31T02:36:58.716Z,12.33
2018-07-31T02:39:27.218Z,12.53
2018-07-31T02:41:55.068Z,12.20
2018-07-31T02:44:22.979Z,13.00
2018-07-31T02:46:50.812Z,12.07
2018-07-31T02:49:18.658Z,12.63
2018-07-31T02:51:46.721Z,12.73
2018-07-31T02:54:14.600Z,11.70
2018-07-31T02:56:42.448Z,11.87
2018-07-31T02:59:10.384Z,12.77
2018-07-31T03:01:38.327Z,12.17
2018-07-31T03:04:06.300Z,12.57
2018-07-31T03:06:34.176Z,12.03
2018-07-31T03:09:02.275Z,12.37
2018-07-31T03:11:30.490Z,13.10
2018-07-31T03:13:58.960Z,13.37
2018-07-31T03:16:26.895Z,14.90
2018-07-31T03:18:54.716Z,13.37
2018-07-31T03:21:22.707Z,13.07
2018-07-31T03:23:50.585Z,12.73
2018-07-31T03:26:18.490Z,13.03
2018-07-31T03:28:46.416Z,12.50
2018-07-31T03:31:14.454Z,12.23
2018-07-31T03:33:42.347Z,12.97
2018-07-31T03:36:11.036Z,12.60
2018-07-31T03:38:39.067Z,12.63
2018-07-31T03:41:06.973Z,12.43
2018-07-31T03:43:34.726Z,11.90
2018-07-31T03:46:02.603Z,12.13
2018-07-31T03:48:30.443Z,12.07
2018-07-31T03:50:59.265Z,12.23
2018-07-31T03:53:27.398Z,11.73
2018-07-31T03:55:55.310Z,11.60
2018-07-31T03:58:23.331Z,11.90
2018-07-31T04:00:51.415Z,11.53
2018-07-31T04:03:19.407Z,12.17
2018-07-31T04:05:47.281Z,13.07
2018-07-31T04:08:15.032Z,11.73
2018-07-31T04:10:42.918Z,11.10
2018-07-31T04:13:11.578Z,10.80
2018-07-31T04:15:40.066Z,10.87
2018-07-31T04:18:07.938Z,11.13
2018-07-31T04:20:37.014Z,10.40
2018-07-31T04:23:04.991Z,10.63
2018-07-31T04:25:33.694Z,9.33
2018-07-31T04:28:01.585Z,9.50
2018-07-31T04:30:29.452Z,10.10
2018-07-31T04:32:57.303Z,9.05
2018-07-31T04:35:26.032Z,11.28
2018-07-31T04:37:54.610Z,11.05
2018-07-31T04:40:22.531Z,10.95
2018-07-31T04:42:50.459Z,10.90
2018-07-31T04:45:18.391Z,10.85
2018-07-31T04:47:46.242Z,9.58
2018-07-31T04:50:14.260Z,9.70
2018-07-31T04:52:42.929Z,10.60
2018-07-31T04:55:10.686Z,11.22
2018-07-31T04:57:38.560Z,11.05
2018-07-31T05:00:07.463Z,11.55
2018-07-31T05:02:35.328Z,11.28
2018-07-31T05:05:03.354Z,10.68
2018-07-31T05:07:32.059Z,10.85
2018-07-31T05:10:00.459Z,11.22
2018-07-31T05:12:28.408Z,9.85
2018-07-31T05:14:56.291Z,10.82
2018-07-31T05:17:24.248Z,10.48
2018-07-31T05:19:52.174Z,10.93
2018-07-31T05:22:20.152Z,11.03
2018-07-31T05:24:49.386Z,10.90
2018-07-31T05:27:24.444Z,10.78
2018-07-31T05:29:53.499Z,10.55
2018-07-31T05:32:21.623Z,11.90
2018-07-31T05:34:49.792Z,11.38
2018-07-31T05:37:17.486Z,12.30
2018-07-31T05:39:46.213Z,12.88
2018-07-31T05:42:14.127Z,12.60
2018-07-31T05:44:42.063Z,12.18
2018-07-31T05:47:09.967Z,13.65
2018-07-31T05:49:37.843Z,12.50
2018-07-31T05:52:05.675Z,12.80
2018-07-31T05:54:34.449Z,12.68
2018-07-31T05:57:02.339Z,13.10
2018-07-31T05:59:31.178Z,12.95
2018-07-31T06:01:59.049Z,12.78
2018-07-31T06:04:27.847Z,14.28
2018-07-31T06:06:55.960Z,13.85
2018-07-31T06:09:23.847Z,14.33
2018-07-31T06:11:51.683Z,13.40
2018-07-31T06:14:19.463Z,14.35
2018-07-31T06:16:47.419Z,13.85
2018-07-31T06:19:15.434Z,14.28
2018-07-31T06:21:43.467Z,14.85
2018-07-31T06:24:11.451Z,14.70
2018-07-31T06:26:39.702Z,14.00
2018-07-31T06:29:07.609Z,13.05
2018-07-31T06:31:35.484Z,12.88
2018-07-31T06:34:03.517Z,13.03
2018-07-31T06:36:31.848Z,13.83
2018-07-31T06:38:59.807Z,13.68
2018-07-31T06:41:28.282Z,13.18
2018-07-31T06:43:56.239Z,12.88
2018-07-31T06:46:24.149Z,12.50
2018-07-31T06:48:52.183Z,12.07
2018-07-31T06:51:20.064Z,12.35
2018-07-31T06:53:48.546Z,11.18
2018-07-31T06:56:16.390Z,11.63
2018-07-31T06:58:44.255Z,11.15
2018-07-31T07:01:12.564Z,11.15
2018-07-31T07:03:40.503Z,10.80
2018-07-31T07:06:09.027Z,11.40
2018-07-31T07:08:37.720Z,10.72
2018-07-31T07:11:05.892Z,11.97
2018-07-31T07:13:34.183Z,11.65
2018-07-31T07:16:02.345Z,10.88
2018-07-31T07:18:30.678Z,11.28
2018-07-31T07:21:03.278Z,10.93
2018-07-31T07:23:31.279Z,10.55
2018-07-31T07:25:59.302Z,10.60
2018-07-31T07:28:27.223Z,10.18
2018-07-31T07:30:55.019Z,9.70
2018-07-31T07:33:22.923Z,10.20
2018-07-31T07:35:51.794Z,10.58
2018-07-31T07:38:19.800Z,10.60
2018-07-31T07:40:47.706Z,10.90
2018-07-31T07:43:16.231Z,10.35
2018-07-31T07:45:44.188Z,10.93
2018-07-31T07:48:12.081Z,10.78
2018-07-31T07:50:40.536Z,11.55
2018-07-31T07:53:08.399Z,11.28
2018-07-31T07:55:36.376Z,10.88
2018-07-31T07:58:04.950Z,11.53
2018-07-31T08:00:33.032Z,11.10
2018-07-31T08:03:00.935Z,10.75
2018-07-31T08:05:28.781Z,12.07
2018-07-31T08:07:56.652Z,11.97
2018-07-31T08:10:24.718Z,12.68
2018-07-31T08:12:52.650Z,12.33
2018-07-31T08:15:20.601Z,12.47
2018-07-31T08:17:48.619Z,12.00
2018-07-31T08:20:16.589Z,12.82
2018-07-31T08:23:05.081Z,13.08
2018-07-31T08:25:32.957Z,12.73
2018-07-31T08:28:01.641Z,11.35
2018-07-31T08:30:30.383Z,12.58
2018-07-31T08:32:58.268Z,11.60
2018-07-31T08:35:26.526Z,10.95
2018-07-31T08:37:54.430Z,11.20
2018-07-31T08:40:22.276Z,10.65
2018-07-31T08:42:50.139Z,10.25
2018-07-31T08:45:18.040Z,12.00
2018-07-31T08:47:47.107Z,11.25
2018-07-31T08:50:16.463Z,9.18
2018-07-31T08:52:44.284Z,9.90
2018-07-31T08:55:13.105Z,10.30
2018-07-31T08:57:41.901Z,9.18
2018-07-31T09:00:10.119Z,7.97
2018-07-31T09:02:38.266Z,8.40
2018-07-31T09:05:06.965Z,8.58
2018-07-31T09:07:35.071Z,9.10
2018-07-31T09:10:02.974Z,8.93
2018-07-31T09:12:30.915Z,9.30
2018-07-31T09:14:58.716Z,8.33
2018-07-31T09:17:26.781Z,8.88
2018-07-31T09:19:55.248Z,8.35
2018-07-31T09:22:23.732Z,9.40
2018-07-31T09:24:51.631Z,8.93
2018-07-31T09:27:19.492Z,9.33
2018-07-31T09:29:47.487Z,8.70
2018-07-31T09:32:15.506Z,9.50
2018-07-31T09:34:46.244Z,9.18
2018-07-31T09:37:14.303Z,9.43
2018-07-31T09:39:42.148Z,10.18
2018-07-31T09:42:10.144Z,9.35
2018-07-31T09:44:38.129Z,9.63
2018-07-31T09:47:06.195Z,8.55
2018-07-31T09:49:34.273Z,9.18
2018-07-31T09:52:02.291Z,8.10
2018-07-31T09:54:30.211Z,8.78
2018-07-31T09:56:58.096Z,9.50
2018-07-31T09:59:25.840Z,9.53
2018-07-31T10:01:53.816Z,9.08
2018-07-31T10:04:21.750Z,8.78
2018-07-31T10:06:49.642Z,8.08
2018-07-31T10:09:18.147Z,9.20
2018-07-31T10:11:46.090Z,9.55
2018-07-31T10:14:14.092Z,8.98
2018-07-31T10:16:42.765Z,8.93
2018-07-31T10:19:11.035Z,9.50
2018-07-31T10:21:39.173Z,8.93
2018-07-31T10:24:07.766Z,8.68
2018-07-31T10:26:35.668Z,8.73
2018-07-31T10:29:03.741Z,9.05
2018-07-31T10:31:31.605Z,8.48
2018-07-31T10:33:59.777Z,9.10
2018-07-31T10:36:28.328Z,9.93
2018-07-31T10:38:56.760Z,8.98
2018-07-31T10:41:24.731Z,8.48
2018-07-31T10:43:52.684Z,8.73
2018-07-31T10:46:20.711Z,8.83
2018-07-31T10:48:49.192Z,9.55
2018-07-31T10:51:17.098Z,8.95
2018-07-31T10:53:45.786Z,8.85
2018-07-31T10:56:13.675Z,9.13
2018-07-31T10:58:41.595Z,9.03
2018-07-31T11:01:09.452Z,9.05
2018-07-31T11:03:37.363Z,9.30
2018-07-31T11:06:05.815Z,9.90
2018-07-31T11:08:33.721Z,9.10
2018-07-31T11:11:01.729Z,8.75
2018-07-31T11:13:29.551Z,8.98
2018-07-31T11:15:57.452Z,9.18
2018-07-31T11:18:25.479Z,8.93
2018-07-31T11:20:53.399Z,9.08
2018-07-31T11:23:21.292Z,8.68
2018-07-31T11:25:49.195Z,8.98
2018-07-31T11:28:17.090Z,7.67
2018-07-31T11:30:45.235Z,7.60
2018-07-31T11:33:13.139Z,8.18
2018-07-31T11:35:41.212Z,8.63
2018-07-31T11:38:09.052Z,8.28
2018-07-31T11:40:36.939Z,9.18
2018-07-31T11:43:04.836Z,8.33
2018-07-31T11:45:32.902Z,9.13
2018-07-31T11:48:02.383Z,8.20
2018-07-31T11:50:30.136Z,8.68
2018-07-31T11:52:58.000Z,8.63
2018-07-31T11:55:29.225Z,8.00
2018-07-31T11:58:07.762Z,8.43
2018-07-31T12:03:36.164Z,8.03
2018-07-31T12:06:24.162Z,9.33
2018-07-31T12:09:02.884Z,8.65
2018-07-31T12:11:36.490Z,8.58
2018-07-31T12:14:20.814Z,9.10
2018-07-31T12:16:54.239Z,8.93
2018-07-31T12:19:22.375Z,9.28
2018-07-31T12:47:53.988Z,9.45
2018-07-31T12:50:21.899Z,8.63
2018-07-31T12:52:49.882Z,9.25
2018-07-31T12:55:19.090Z,9.55
2018-07-31T12:57:47.045Z,8.93
2018-07-31T13:00:14.901Z,9.00
2018-07-31T13:02:42.867Z,9.38
2018-07-31T13:05:10.791Z,9.25
2018-07-31T13:07:38.699Z,9.50
2018-07-31T13:10:06.587Z,9.25
2018-07-31T13:12:34.525Z,9.68
2018-07-31T13:15:02.402Z,9.25
2018-07-31T13:17:30.291Z,9.80
2018-07-31T13:19:58.175Z,9.03
2018-07-31T13:22:27.368Z,7.90
2018-07-31T13:24:55.404Z,7.35
2018-07-31T13:27:23.546Z,8.23
2018-07-31T13:29:53.469Z,8.53
2018-07-31T13:32:21.354Z,7.58
2018-07-31T13:34:50.166Z,6.90
2018-07-31T13:37:18.067Z,6.40
2018-07-31T13:39:45.983Z,6.12
2018-07-31T13:42:14.027Z,7.20
2018-07-31T13:44:41.843Z,7.90
2018-07-31T13:47:10.527Z,7.65
2018-07-31T13:49:38.614Z,6.67
2018-07-31T13:52:06.887Z,6.72
2018-07-31T13:54:35.444Z,7.22
2018-07-31T13:57:04.092Z,7.17
2018-07-31T13:59:32.020Z,6.95
2018-07-31T14:02:01.254Z,6.60
2018-07-31T14:04:29.291Z,7.17
2018-07-31T14:06:57.220Z,7.08
2018-07-31T14:22:25.109Z,6.85
2018-07-31T14:24:55.179Z,7.12
2018-07-31T14:27:23.096Z,7.45
2018-07-31T14:29:51.691Z,6.72
2018-07-31T14:32:19.653Z,7.28
2018-07-31T14:34:47.523Z,6.97
2018-07-31T14:37:15.507Z,7.85
2018-07-31T14:39:43.391Z,7.65
2018-07-31T14:42:11.303Z,7.03
2018-07-31T14:44:39.193Z,7.10
2018-07-31T14:47:07.947Z,7.72
2018-07-31T14:49:36.128Z,7.25
2018-07-31T14:52:04.054Z,7.37
2018-07-31T14:54:31.904Z,6.90
2018-07-31T14:56:59.942Z,7.30
2018-07-31T14:59:28.538Z,9.15
2018-07-31T15:01:56.387Z,7.35
2018-07-31T15:04:25.001Z,6.80
2018-07-31T15:06:53.467Z,6.80
2018-07-31T15:09:21.295Z,7.00
2018-07-31T15:11:49.239Z,7.35
2018-07-31T15:14:17.359Z,7.17
2018-07-31T15:16:45.189Z,7.15
2018-07-31T15:19:13.620Z,7.17
2018-07-31T15:21:41.519Z,7.22
2018-07-31T15:24:09.446Z,7.35
2018-07-31T15:26:38.010Z,7.00
2018-07-31T15:29:05.964Z,7.45
2018-07-31T15:31:35.779Z,8.05
2018-07-31T15:34:03.750Z,7.80
2018-07-31T15:36:31.691Z,8.03
2018-07-31T15:38:59.688Z,6.90
2018-07-31T15:41:27.683Z,7.83
2018-07-31T15:43:56.435Z,7.60
2018-07-31T15:46:25.298Z,7.42
2018-07-31T15:48:53.085Z,6.92
2018-07-31T15:51:21.713Z,7.90
2018-07-31T15:53:49.948Z,7.58
2018-07-31T15:56:18.422Z,7.22
2018-07-31T15:58:46.339Z,7.55
2018-07-31T16:01:14.167Z,7.30
2018-07-31T16:03:42.352Z,6.95
2018-07-31T16:06:10.119Z,6.78
2018-07-31T16:08:38.203Z,7.22
2018-07-31T16:11:07.117Z,7.20
2018-07-31T16:13:35.200Z,7.72
2018-07-31T16:16:03.163Z,8.00
2018-07-31T16:18:31.119Z,7.10
2018-07-31T16:20:58.971Z,7.00
2018-07-31T16:23:26.948Z,7.50
2018-07-31T16:25:55.453Z,8.03
2018-07-31T16:28:23.493Z,7.12
2018-07-31T16:30:51.371Z,8.45
2018-07-31T16:33:19.327Z,7.75
2018-07-31T16:35:47.323Z,8.55
2018-07-31T16:38:15.267Z,9.15
2018-07-31T16:40:43.232Z,8.58
2018-07-31T16:43:11.207Z,7.87
2018-07-31T16:45:39.085Z,7.97
2018-07-31T16:48:07.367Z,7.60
2018-07-31T16:50:35.214Z,8.18
2018-07-31T16:53:03.093Z,7.62
2018-07-31T16:55:31.722Z,7.72
2018-07-31T16:58:00.163Z,8.15
2018-07-31T17:00:27.885Z,9.10
2018-07-31T17:02:55.703Z,7.67
2018-07-31T17:05:23.588Z,9.78
2018-07-31T17:07:51.543Z,8.75
2018-07-31T17:10:19.427Z,9.05
2018-07-31T17:12:48.122Z,8.20
2018-07-31T17:15:16.349Z,9.18
2018-07-31T17:17:44.241Z,7.53
2018-07-31T17:20:12.229Z,12.90
2018-07-31T17:22:40.128Z,8.38
2018-07-31T17:25:08.072Z,8.30
2018-07-31T17:27:36.759Z,8.40
2018-07-31T17:30:06.177Z,8.50
2018-07-31T17:32:35.144Z,8.03
2018-07-31T17:35:03.101Z,7.83
2018-07-31T17:37:31.123Z,8.05
2018-07-31T17:39:59.285Z,7.65
2018-07-31T17:42:27.345Z,8.28
2018-07-31T17:44:55.719Z,8.05
2018-07-31T17:47:23.734Z,8.68
2018-07-31T17:49:51.528Z,8.03
2018-07-31T17:52:19.584Z,8.68
2018-07-31T17:54:47.385Z,7.75
2018-07-31T17:57:15.894Z,9.28
2018-07-31T17:59:43.621Z,8.65
2018-07-31T18:02:11.375Z,8.13
2018-07-31T18:04:39.346Z,8.28
2018-07-31T18:07:07.210Z,8.70
2018-07-31T18:09:35.431Z,8.30
2018-07-31T18:12:03.127Z,8.60
2018-07-31T18:14:31.086Z,8.73
2018-07-31T18:16:59.536Z,8.20
2018-07-31T18:19:27.846Z,7.92
2018-07-31T18:21:55.751Z,9.50
2018-07-31T18:24:23.627Z,8.60
2018-07-31T18:26:51.687Z,9.13
2018-07-31T18:29:19.643Z,8.13
2018-07-31T18:31:47.667Z,8.93
2018-07-31T18:34:15.656Z,8.25
2018-07-31T18:36:43.381Z,8.93
2018-07-31T18:39:12.770Z,8.45
2018-07-31T18:41:41.192Z,8.33
2018-07-31T18:44:09.975Z,10.58
2018-07-31T18:46:38.499Z,8.18
2018-07-31T18:49:06.763Z,8.60
2018-07-31T18:51:34.796Z,10.43
2018-07-31T19:07:02.816Z,8.43
2018-07-31T19:09:30.817Z,8.58
2018-07-31T19:11:59.073Z,9.45
2018-07-31T19:14:26.977Z,9.08
2018-07-31T19:16:55.867Z,10.53
2018-07-31T19:19:23.694Z,10.28
2018-07-31T19:21:51.599Z,12.03
2018-07-31T19:24:19.476Z,9.40
2018-07-31T19:26:47.430Z,9.98
2018-07-31T19:29:16.085Z,10.48
2018-07-31T19:31:44.557Z,8.90
2018-07-31T19:34:12.937Z,10.25
2018-07-31T19:36:41.021Z,9.45
2018-07-31T19:39:09.429Z,9.60
2018-07-31T19:41:37.339Z,8.85
2018-07-31T19:44:06.362Z,9.78
2018-07-31T19:46:34.814Z,10.32
2018-07-31T19:49:03.455Z,8.70
2018-07-31T19:51:32.265Z,9.68
2018-07-31T19:54:00.189Z,9.25
2018-07-31T19:56:28.138Z,8.65
2018-07-31T19:58:56.108Z,8.85
2018-07-31T20:01:24.585Z,10.03
2018-07-31T20:03:52.574Z,9.55
2018-07-31T20:06:20.855Z,9.08
2018-07-31T20:08:48.839Z,9.35
2018-07-31T20:11:17.379Z,9.35
2018-07-31T20:13:45.302Z,8.85
2018-07-31T20:16:13.528Z,9.03
2018-07-31T20:18:41.604Z,9.10
2018-07-31T20:21:09.554Z,9.38
2018-07-31T20:23:37.394Z,8.90
2018-07-31T20:26:05.434Z,9.40
2018-07-31T20:28:33.485Z,9.60
2018-07-31T20:31:01.456Z,9.50
2018-07-31T20:33:30.759Z,8.78
2018-07-31T20:35:59.812Z,10.10
2018-07-31T20:38:30.865Z,9.53
2018-07-31T20:40:58.865Z,9.18
2018-07-31T20:43:26.814Z,9.20
2018-07-31T20:45:55.413Z,8.63
2018-07-31T20:48:23.428Z,9.38
2018-07-31T20:50:51.445Z,9.35
2018-07-31T20:53:22.200Z,9.73
2018-07-31T20:55:51.273Z,8.65
2018-07-31T20:58:37.887Z,8.88
2018-07-31T21:01:06.518Z,9.18
2018-07-31T21:03:55.663Z,9.60
2018-07-31T21:06:23.643Z,8.70
2018-07-31T21:08:51.882Z,8.80
2018-07-31T21:12:13.856Z,10.20
2018-07-31T21:14:42.750Z,9.63
2018-07-31T21:17:11.818Z,9.65
2018-07-31T21:19:43.225Z,8.28
2018-07-31T21:22:13.103Z,9.08
2018-07-31T21:24:42.495Z,8.98
2018-07-31T21:27:12.811Z,9.05
2018-07-31T21:29:43.310Z,8.55
2018-07-31T21:32:12.634Z,9.48
2018-07-31T21:34:42.749Z,8.58
2018-07-31T21:37:11.542Z,8.43
2018-07-31T21:39:40.527Z,8.70
2018-07-31T21:42:17.400Z,9.03
2018-07-31T21:44:48.305Z,9.98
2018-07-31T21:47:17.931Z,8.68
2018-07-31T21:49:46.415Z,9.47
2018-07-31T21:52:17.722Z,9.93
2018-07-31T21:54:46.037Z,9.98
2018-07-31T21:57:13.967Z,9.40
2018-07-31T21:59:41.913Z,9.60
2018-07-31T22:02:14.096Z,10.08
2018-07-31T22:04:42.710Z,9.43
2018-07-31T22:07:11.787Z,9.48
2018-07-31T22:09:43.341Z,9.33
2018-07-31T22:12:13.563Z,9.55
2018-07-31T22:14:44.953Z,9.00
2018-07-31T22:17:12.933Z,9.33
2018-07-31T22:19:41.185Z,9.50
2018-07-31T22:22:10.092Z,9.67
2018-07-31T22:24:38.493Z,9.60
2018-07-31T22:27:07.941Z,9.67
2018-07-31T22:29:35.631Z,10.20
2018-07-31T22:32:03.576Z,9.60
2018-07-31T22:34:31.698Z,9.20
2018-07-31T22:36:59.984Z,9.30
2018-07-31T22:39:28.019Z,10.10
2018-07-31T22:41:56.805Z,9.80
2018-07-31T22:44:24.694Z,11.00
2018-07-31T22:46:52.537Z,9.90
2018-07-31T22:49:21.265Z,10.30
2018-07-31T22:51:49.545Z,9.77
2018-07-31T22:54:17.452Z,9.40
2018-07-31T22:56:45.620Z,9.80
2018-07-31T22:59:13.371Z,10.17
2018-07-31T23:01:41.251Z,9.13
2018-07-31T23:04:09.319Z,9.37
2018-07-31T23:06:37.208Z,9.70
2018-07-31T23:09:07.288Z,9.50
2018-07-31T23:11:35.268Z,9.93
2018-07-31T23:14:03.311Z,11.03
2018-07-31T23:16:31.272Z,11.03
2018-07-31T23:18:59.217Z,9.83
2018-07-31T23:21:27.872Z,10.27
2018-07-31T23:23:55.817Z,10.37
2018-07-31T23:26:23.707Z,10.43
2018-07-31T23:28:52.221Z,11.20
2018-07-31T23:31:21.155Z,10.50
2018-07-31T23:33:49.100Z,10.87
2018-07-31T23:36:17.342Z,10.83
2018-07-31T23:38:45.209Z,10.00
2018-07-31T23:54:13.126Z,11.40
2018-07-31T23:56:41.967Z,9.97
2018-07-31T23:59:09.757Z,9.37
